Gaschem Phoenix — ELUO6 — position and weather

sailwx.info

Track history (hours):
 
Tides and Currents Weather Stations Pressure Air Temp Water Temp Dewpoint Dewpoint Depression Visibility Wind Speed Wind Dir Waves Ship Positions

Gaschem Phoenix

Last reported at 2015-Jul-05 16:33 UTC. Time now 2015-Jul-05 17:28 UTC.
Position N 31°25' E 121°32'.

Length 100 m; draft 4.5 m.

Type: Ship. MMSI: 636090235.

Date/timePositionNaut miles runAvg speedWind from/ knotsBaromVisibWave heightAir tempDewpointWater temp
2015-Jul-05 16:33N 31°25' E 121°32'8 8.4
2015-Jul-05 15:33N 31°30' E 121°24'1111.1
2015-Jul-05 14:33N 31°38' E 121°15'1313.2
2015-Jul-05 13:33N 31°46' E 121°03'1111.4
2015-Jul-05 12:33N 31°54' E 120°53'1110.8
2015-Jul-05 11:33N 32°00' E 120°43'1010.5
2015-Jul-05 10:33N 32°04' E 120°31'1111.4
2015-Jul-05 09:33N 31°58' E 120°20'1812.1
2015-Jul-05 08:06N 31°60' E 119°59'15 0.5
2015-Jul-03 22:33N 32°14' E 119°53'1110.9
2015-Jul-03 21:32N 32°03' E 119°56'1010.3
2015-Jul-03 20:33N 31°57' E 120°05'10 9.7
2015-Jul-03 19:30N 31°57' E 120°17'1010.7
2015-Jul-03 18:33N 32°04' E 120°27'8 7.6
2015-Jul-03 17:33N 32°01' E 120°35'8 7.8
2015-Jul-03 16:33N 32°01' E 120°44'7 7.3
2015-Jul-03 15:34N 31°57' E 120°52'11 8.6
2015-Jul-03 14:16N 31°47' E 120°57'5 7.6
2015-Jul-03 13:33N 31°46' E 121°04'0 0.2
2015-Jul-03 12:31N 31°47' E 121°04'0 0.0
2015-Jul-03 11:31N 31°47' E 121°04'0 0.5
2015-Jul-03 10:33N 31°46' E 121°04'6 6.5
2015-Jul-03 09:33N 31°42' E 121°09'1010.0
2015-Jul-03 08:33N 31°35' E 121°18'1211.5
2015-Jul-03 07:33N 31°27' E 121°28'9 8.5
2015-Jul-03 06:33N 31°23' E 121°37'1212.3
2015-Jul-03 05:34N 31°14' E 121°47'1313.4
2015-Jul-03 04:33N 31°06' E 121°59'1211.9
2015-Jul-03 03:33N 31°03' E 122°13'9 8.8
2015-Jul-03 02:30N 31°02' E 122°24'8 8.2
2015-Jul-03 01:33N 31°00' E 122°32'9 9.2
2015-Jul-03 00:33N 30°58' E 122°43'9 9.0
2015-Jul-02 23:33N 30°58' E 122°53'9 8.5
2015-Jul-02 22:33N 30°58' E 123°03'9 9.0
2015-Jul-02 21:33N 30°58' E 123°14'11 8.9
2015-Jul-02 20:17N 30°58' E 123°27'9 8.9
2015-Jul-02 19:15N 30°58' E 123°38'1 0.6
2015-Jul-02 17:30N 30°57' E 123°36'7 7.7
2015-Jul-02 16:33N 30°58' E 123°45'8 8.2
2015-Jul-02 15:32N 30°58' E 123°55'125 6.9
2015-Jul-01 21:22N 30°57' E 126°21'18 9.6
2015-Jul-01 19:31N 30°57' E 126°42'  
2015-Jun-28 02:33N 34°55' E 139°39'1010.2
2015-Jun-28 01:33N 35°05' E 139°44'1010.3
2015-Jun-28 00:34N 35°15' E 139°46'1010.1
2015-Jun-27 23:34N 35°25' E 139°44'1111.5
2015-Jun-27 22:34N 35°31' E 139°55'7 6.5
2015-Jun-27 21:33N 35°32' E 140°03'0 0.0
2015-Jun-27 06:26N 35°32' E 140°03'4 3.5
2015-Jun-27 05:22N 35°31' E 139°59'0 0.1
2015-Jun-27 04:31N 35°31' E 139°59'0 0.0
2015-Jun-27 02:12N 35°31' E 139°59'0 0.0
2015-Jun-27 00:23N 35°31' E 139°59'0 0.0
2015-Jun-26 23:17N 35°31' E 139°59'0 0.0
2015-Jun-26 21:10N 35°31' E 139°59'0 0.0
2015-Jun-26 20:18N 35°31' E 139°59'0 0.0
2015-Jun-26 18:33N 35°31' E 139°59'0 0.0
2015-Jun-26 17:20N 35°31' E 139°59'0 0.0
2015-Jun-26 16:20N 35°31' E 139°59'0 0.0
2015-Jun-26 14:25N 35°31' E 139°59'0 0.0
2015-Jun-26 12:24N 35°31' E 139°59'0 0.0
2015-Jun-26 10:23N 35°31' E 139°59'0 0.0
2015-Jun-26 09:29N 35°31' E 139°59'0 0.0
2015-Jun-26 08:22N 35°31' E 139°59'0 0.0
2015-Jun-26 07:16N 35°31' E 139°59'0 0.0
2015-Jun-26 06:27N 35°31' E 139°59'0 0.0
2015-Jun-26 05:21N 35°31' E 139°59'0 0.0
2015-Jun-26 04:33N 35°31' E 139°59'0 0.0
2015-Jun-26 03:32N 35°31' E 139°59'2 1.9
2015-Jun-26 02:33N 35°31' E 139°57'10 9.8
2015-Jun-26 01:33N 35°25' E 139°48'9 9.4
2015-Jun-26 00:33N 35°16' E 139°47'1010.5
2015-Jun-25 23:33N 35°05' E 139°45'1111.1
2015-Jun-25 22:33N 34°55' E 139°39'1111.0
2015-Jun-25 21:33N 34°45' E 139°34'1210.6
2015-Jun-25 20:26N 34°36' E 139°25'  
Track history (hours):
 
Tides and Currents Weather Stations Pressure Air Temp Water Temp Dewpoint Dewpoint Depression Visibility Wind Speed Wind Dir Waves Ship Positions

Gaschem Phoenix

Last reported at 2015-Jul-05 16:33 UTC. Time now 2015-Jul-05 17:28 UTC.
Position N 31°25' E 121°32'.

Length 100 m; draft 4.5 m.

Type: Ship. MMSI: 636090235.

Date/timePositionNaut miles runAvg speedWind from/ knotsBaromVisibWave heightAir tempDewpointWater temp
2015-Jul-05 16:33N 31°25' E 121°32'8 8.4
2015-Jul-05 15:33N 31°30' E 121°24'1111.1
2015-Jul-05 14:33N 31°38' E 121°15'1313.2
2015-Jul-05 13:33N 31°46' E 121°03'1111.4
2015-Jul-05 12:33N 31°54' E 120°53'1110.8
2015-Jul-05 11:33N 32°00' E 120°43'1010.5
2015-Jul-05 10:33N 32°04' E 120°31'1111.4
2015-Jul-05 09:33N 31°58' E 120°20'1812.1
2015-Jul-05 08:06N 31°60' E 119°59'15 0.5
2015-Jul-03 22:33N 32°14' E 119°53'1110.9
2015-Jul-03 21:32N 32°03' E 119°56'1010.3
2015-Jul-03 20:33N 31°57' E 120°05'10 9.7
2015-Jul-03 19:30N 31°57' E 120°17'1010.7
2015-Jul-03 18:33N 32°04' E 120°27'8 7.6
2015-Jul-03 17:33N 32°01' E 120°35'8 7.8
2015-Jul-03 16:33N 32°01' E 120°44'7 7.3
2015-Jul-03 15:34N 31°57' E 120°52'11 8.6
2015-Jul-03 14:16N 31°47' E 120°57'5 7.6
2015-Jul-03 13:33N 31°46' E 121°04'0 0.2
2015-Jul-03 12:31N 31°47' E 121°04'0 0.0
2015-Jul-03 11:31N 31°47' E 121°04'0 0.5
2015-Jul-03 10:33N 31°46' E 121°04'6 6.5
2015-Jul-03 09:33N 31°42' E 121°09'1010.0
2015-Jul-03 08:33N 31°35' E 121°18'1211.5
2015-Jul-03 07:33N 31°27' E 121°28'9 8.5
2015-Jul-03 06:33N 31°23' E 121°37'1212.3
2015-Jul-03 05:34N 31°14' E 121°47'1313.4
2015-Jul-03 04:33N 31°06' E 121°59'1211.9
2015-Jul-03 03:33N 31°03' E 122°13'9 8.8
2015-Jul-03 02:30N 31°02' E 122°24'8 8.2
2015-Jul-03 01:33N 31°00' E 122°32'9 9.2
2015-Jul-03 00:33N 30°58' E 122°43'9 9.0
2015-Jul-02 23:33N 30°58' E 122°53'9 8.5
2015-Jul-02 22:33N 30°58' E 123°03'9 9.0
2015-Jul-02 21:33N 30°58' E 123°14'11 8.9
2015-Jul-02 20:17N 30°58' E 123°27'9 8.9
2015-Jul-02 19:15N 30°58' E 123°38'1 0.6
2015-Jul-02 17:30N 30°57' E 123°36'7 7.7
2015-Jul-02 16:33N 30°58' E 123°45'8 8.2
2015-Jul-02 15:32N 30°58' E 123°55'125 6.9
2015-Jul-01 21:22N 30°57' E 126°21'18 9.6
2015-Jul-01 19:31N 30°57' E 126°42'  
2015-Jun-28 02:33N 34°55' E 139°39'1010.2
2015-Jun-28 01:33N 35°05' E 139°44'1010.3
2015-Jun-28 00:34N 35°15' E 139°46'1010.1
2015-Jun-27 23:34N 35°25' E 139°44'1111.5
2015-Jun-27 22:34N 35°31' E 139°55'7 6.5
2015-Jun-27 21:33N 35°32' E 140°03'0 0.0
2015-Jun-27 06:26N 35°32' E 140°03'4 3.5
2015-Jun-27 05:22N 35°31' E 139°59'0 0.1
2015-Jun-27 04:31N 35°31' E 139°59'0 0.0
2015-Jun-27 02:12N 35°31' E 139°59'0 0.0
2015-Jun-27 00:23N 35°31' E 139°59'0 0.0
2015-Jun-26 23:17N 35°31' E 139°59'0 0.0
2015-Jun-26 21:10N 35°31' E 139°59'0 0.0
2015-Jun-26 20:18N 35°31' E 139°59'0 0.0
2015-Jun-26 18:33N 35°31' E 139°59'0 0.0
2015-Jun-26 17:20N 35°31' E 139°59'0 0.0
2015-Jun-26 16:20N 35°31' E 139°59'0 0.0
2015-Jun-26 14:25N 35°31' E 139°59'0 0.0
2015-Jun-26 12:24N 35°31' E 139°59'0 0.0
2015-Jun-26 10:23N 35°31' E 139°59'0 0.0
2015-Jun-26 09:29N 35°31' E 139°59'0 0.0
2015-Jun-26 08:22N 35°31' E 139°59'0 0.0
2015-Jun-26 07:16N 35°31' E 139°59'0 0.0
2015-Jun-26 06:27N 35°31' E 139°59'0 0.0
2015-Jun-26 05:21N 35°31' E 139°59'0 0.0
2015-Jun-26 04:33N 35°31' E 139°59'0 0.0
2015-Jun-26 03:32N 35°31' E 139°59'2 1.9
2015-Jun-26 02:33N 35°31' E 139°57'10 9.8
2015-Jun-26 01:33N 35°25' E 139°48'9 9.4
2015-Jun-26 00:33N 35°16' E 139°47'1010.5
2015-Jun-25 23:33N 35°05' E 139°45'1111.1
2015-Jun-25 22:33N 34°55' E 139°39'1111.0
2015-Jun-25 21:33N 34°45' E 139°34'1210.6
2015-Jun-25 20:26N 34°36' E 139°25'  

Dump ship's entire track history